Monticello, Missouri
Current Conditions -  °F | °C
As of 10:15 AM on Monday 24 Nov 2014 (Local Time) from KEOK Reporting Station
Overcast Overcast  
Wind Chill: 20°   Ceiling: 2200
Heat Index: 32°   Visibility: 10mi
Dew Point: 27°   Wind: 21mph
Humidity: 80%   Direction: 260°W
Pressure: 29.55"   Gusts: 26mph
Location:  40.12°N, 91.71°W
Report Text: KEOK 241615Z AUTO 26018G23KT 10SM BKN022 OVC028 M00/M03 A2955 RMK AO2
Loading
Personal Weather Stations






























Interactive Weather Map New forecast layout! Learn more

10-Day Weather Forecast

Advertisements
Track Severe Weather on mobile